createdAt,value
2022-11-25T00:00:02.795Z,1002.48
2022-11-25T00:01:02.221Z,1002.49
2022-11-25T00:02:02.079Z,1002.48
2022-11-25T00:03:01.970Z,1002.47
2022-11-25T00:04:02.232Z,1002.48
2022-11-25T00:05:02.321Z,1002.52
2022-11-25T00:06:01.810Z,1002.50
2022-11-25T00:07:02.363Z,1002.50
2022-11-25T00:08:02.050Z,1002.49
2022-11-25T00:09:02.423Z,1002.40
2022-11-25T00:10:01.863Z,1002.40
2022-11-25T00:11:02.402Z,1002.33
2022-11-25T00:12:02.162Z,1002.36
2022-11-25T00:13:01.957Z,1002.37
2022-11-25T00:14:02.179Z,1002.37
2022-11-25T00:15:02.246Z,1002.34
2022-11-25T00:16:02.314Z,1002.34
2022-11-25T00:17:02.148Z,1002.31
2022-11-25T00:18:02.640Z,1002.34
2022-11-25T00:19:02.300Z,1002.34
2022-11-25T00:20:02.574Z,1002.37
2022-11-25T00:21:02.197Z,1002.31
2022-11-25T00:22:01.988Z,1002.34
2022-11-25T00:23:01.891Z,1002.35
2022-11-25T00:24:02.114Z,1002.33
2022-11-25T00:25:02.269Z,1002.28
2022-11-25T00:26:01.865Z,1002.36
2022-11-25T00:27:02.720Z,1002.38
2022-11-25T00:28:02.428Z,1002.38
2022-11-25T00:29:02.380Z,1002.41
2022-11-25T00:30:02.870Z,1002.46
2022-11-25T00:31:02.826Z,1002.45
2022-11-25T00:32:01.959Z,1002.40
2022-11-25T00:33:01.860Z,1002.46
2022-11-25T00:34:01.682Z,1002.49
2022-11-25T00:35:01.761Z,1002.54
2022-11-25T00:36:01.780Z,1002.60
2022-11-25T00:37:02.474Z,1002.57
2022-11-25T00:38:02.638Z,1002.58
2022-11-25T00:39:02.916Z,1002.52
2022-11-25T00:40:02.640Z,1002.47
2022-11-25T00:41:02.533Z,1002.53
2022-11-25T00:42:02.255Z,1002.48
2022-11-25T00:43:02.375Z,1002.47
2022-11-25T00:44:02.433Z,1002.45
2022-11-25T00:45:02.475Z,1002.45
2022-11-25T00:46:02.721Z,1002.47
2022-11-25T00:47:01.886Z,1002.49
2022-11-25T00:48:02.071Z,1002.50
2022-11-25T00:49:01.800Z,1002.54
2022-11-25T00:50:01.445Z,1002.47
2022-11-25T00:51:01.779Z,1002.43
2022-11-25T00:52:01.419Z,1002.48
2022-11-25T00:53:01.791Z,1002.44
2022-11-25T00:54:01.938Z,1002.49
2022-11-25T00:55:01.375Z,1002.53
2022-11-25T00:56:01.919Z,1002.49
2022-11-25T00:57:01.748Z,1002.49
2022-11-25T00:58:01.554Z,1002.47
2022-11-25T00:59:01.954Z,1002.52
2022-11-25T01:00:01.568Z,1002.50
2022-11-25T01:01:02.266Z,1002.49
2022-11-25T01:02:03.197Z,1002.41
2022-11-25T01:03:02.992Z,1002.34
2022-11-25T01:04:03.355Z,1002.40
2022-11-25T01:05:03.461Z,1002.28
2022-11-25T01:06:03.261Z,1002.23
2022-11-25T01:07:02.991Z,1002.23
2022-11-25T01:08:03.096Z,1002.23
2022-11-25T01:09:02.802Z,1002.21
2022-11-25T01:10:03.397Z,1002.19
2022-11-25T01:11:02.960Z,1002.19
2022-11-25T01:12:02.733Z,1002.06
2022-11-25T01:13:02.377Z,1002.10
2022-11-25T01:14:02.355Z,1002.10
2022-11-25T01:15:02.709Z,1002.09
2022-11-25T01:16:02.756Z,1002.10
2022-11-25T01:17:03.442Z,1002.09
2022-11-25T01:18:03.277Z,1002.15
2022-11-25T01:19:03.019Z,1002.12
2022-11-25T01:20:03.339Z,1002.11
2022-11-25T01:21:03.237Z,1002.10
2022-11-25T01:22:02.545Z,1002.10
2022-11-25T01:23:03.081Z,1002.10
2022-11-25T01:24:02.737Z,1002.12
2022-11-25T01:25:02.843Z,1002.01
2022-11-25T01:26:02.599Z,1002.01
2022-11-25T01:27:02.894Z,1002.02
2022-11-25T01:28:02.862Z,1002.03
2022-11-25T01:29:03.089Z,1002.02
2022-11-25T01:30:02.871Z,1002.02
2022-11-25T01:31:03.425Z,1002.02
2022-11-25T01:32:02.816Z,1002.07
2022-11-25T01:33:02.864Z,1002.10
2022-11-25T01:34:02.404Z,1002.10
2022-11-25T01:35:02.783Z,1002.18
2022-11-25T01:36:02.760Z,1002.13
2022-11-25T01:37:03.237Z,1002.10
2022-11-25T01:38:03.151Z,1002.12
2022-11-25T01:39:02.995Z,1002.12
2022-11-25T01:40:03.183Z,1002.15
2022-11-25T01:41:02.936Z,1002.11
2022-11-25T01:42:03.410Z,1002.10
2022-11-25T01:43:03.421Z,1002.08
2022-11-25T01:44:03.660Z,1002.16
2022-11-25T01:45:03.561Z,1002.13
2022-11-25T01:46:03.352Z,1002.09
2022-11-25T01:47:03.158Z,1002.01
2022-11-25T01:48:02.626Z,1002.10
2022-11-25T01:49:02.529Z,1002.06
2022-11-25T01:50:02.556Z,1002.05
2022-11-25T01:51:02.695Z,1002.05
2022-11-25T01:52:03.561Z,1002.06
2022-11-25T01:53:03.451Z,1002.12
2022-11-25T01:54:03.712Z,1002.08
2022-11-25T01:55:03.568Z,1002.07
2022-11-25T01:56:03.313Z,1002.11
2022-11-25T01:57:02.995Z,1002.11
2022-11-25T01:58:02.858Z,1002.08
2022-11-25T01:59:02.860Z,1002.10
2022-11-25T02:00:02.887Z,1002.14
2022-11-25T02:01:02.700Z,1002.10
2022-11-25T02:02:01.873Z,1002.17
2022-11-25T02:03:02.064Z,1002.08
2022-11-25T02:04:02.289Z,1002.07
2022-11-25T02:05:02.079Z,1002.09
2022-11-25T02:06:02.079Z,1002.02
2022-11-25T02:07:02.653Z,1002.10
2022-11-25T02:08:02.927Z,1001.98
2022-11-25T02:09:02.425Z,1002.01
2022-11-25T02:10:02.847Z,1002.03
2022-11-25T02:11:02.541Z,1001.98
2022-11-25T02:12:01.983Z,1002.01
2022-11-25T02:13:01.672Z,1002.00
2022-11-25T02:14:01.604Z,1001.99
2022-11-25T02:15:02.032Z,1001.93
2022-11-25T02:16:01.708Z,1001.97
2022-11-25T02:17:01.890Z,1001.96
2022-11-25T02:18:02.298Z,1001.95
2022-11-25T02:19:01.900Z,1001.97
2022-11-25T02:20:01.922Z,1001.94
2022-11-25T02:21:02.068Z,1001.99
2022-11-25T02:22:02.546Z,1001.93
2022-11-25T02:23:02.211Z,1001.95
2022-11-25T02:24:02.019Z,1001.92
2022-11-25T02:25:02.352Z,1001.91
2022-11-25T02:26:02.165Z,1001.88
2022-11-25T02:27:02.864Z,1001.94
2022-11-25T02:28:02.922Z,1001.93
2022-11-25T02:29:02.504Z,1001.83
2022-11-25T02:30:02.932Z,1001.84
2022-11-25T02:31:02.950Z,1001.83
2022-11-25T02:32:02.573Z,1001.88
2022-11-25T02:33:02.324Z,1001.88
2022-11-25T02:34:02.379Z,1001.83
2022-11-25T02:35:02.320Z,1001.83
2022-11-25T02:36:01.980Z,1001.85
2022-11-25T02:37:02.045Z,1001.84
2022-11-25T02:38:01.899Z,1001.86
2022-11-25T02:39:02.250Z,1001.85
2022-11-25T02:40:01.887Z,1001.81
2022-11-25T02:41:02.382Z,1001.86
2022-11-25T02:42:02.297Z,1001.86
2022-11-25T02:43:02.391Z,1001.82
2022-11-25T02:44:02.580Z,1001.85
2022-11-25T02:45:02.461Z,1001.80
2022-11-25T02:46:02.207Z,1001.76
2022-11-25T02:47:02.388Z,1001.73
2022-11-25T02:48:02.164Z,1001.74
2022-11-25T02:49:10.343Z,1001.70
2022-11-25T02:50:02.158Z,1001.76
2022-11-25T02:51:02.409Z,1001.80
2022-11-25T02:52:01.719Z,1001.75
2022-11-25T02:53:01.828Z,1001.74
2022-11-25T02:54:01.824Z,1001.74
2022-11-25T02:55:02.254Z,1001.68
2022-11-25T02:56:01.780Z,1001.63
2022-11-25T02:57:01.895Z,1001.56
2022-11-25T02:58:02.531Z,1001.57
2022-11-25T02:59:01.991Z,1001.61
2022-11-25T03:00:02.354Z,1001.63
2022-11-25T03:01:01.990Z,1001.60
2022-11-25T03:02:02.488Z,1001.63
2022-11-25T03:03:02.065Z,1001.60
2022-11-25T03:04:02.600Z,1001.61
2022-11-25T03:05:02.297Z,1001.58
2022-11-25T03:06:02.020Z,1001.62
2022-11-25T03:07:01.887Z,1001.62
2022-11-25T03:08:02.011Z,1001.67
2022-11-25T03:09:02.115Z,1001.66
2022-11-25T03:10:02.006Z,1001.68
2022-11-25T03:11:01.551Z,1001.72
2022-11-25T03:12:02.139Z,1001.71
2022-11-25T03:13:02.000Z,1001.79
2022-11-25T03:14:02.027Z,1001.77
2022-11-25T03:15:01.906Z,1001.77
2022-11-25T03:16:02.187Z,1001.79
2022-11-25T03:17:01.988Z,1001.79
2022-11-25T03:18:01.920Z,1001.78
2022-11-25T03:19:02.055Z,1001.84
2022-11-25T03:20:01.875Z,1001.77
2022-11-25T03:21:02.200Z,1001.77
2022-11-25T03:22:02.486Z,1001.79
2022-11-25T03:23:02.560Z,1001.81
2022-11-25T03:24:02.333Z,1001.76
2022-11-25T03:25:01.932Z,1001.78
2022-11-25T03:26:02.591Z,1001.78
2022-11-25T03:27:02.283Z,1001.68
2022-11-25T03:28:02.250Z,1001.77
2022-11-25T03:29:02.672Z,1001.70
2022-11-25T03:30:02.527Z,1001.74
2022-11-25T03:31:02.503Z,1001.74
2022-11-25T03:32:04.318Z,1001.72
2022-11-25T03:33:01.766Z,1001.74
2022-11-25T03:34:02.237Z,1001.72
2022-11-25T03:35:01.934Z,1001.67
2022-11-25T03:36:02.233Z,1001.64
2022-11-25T03:37:01.427Z,1001.70
2022-11-25T03:38:01.233Z,1001.62
2022-11-25T03:39:01.433Z,1001.65
2022-11-25T03:40:01.321Z,1001.64
2022-11-25T03:41:01.696Z,1001.64
2022-11-25T03:42:02.147Z,1001.57
2022-11-25T03:43:02.287Z,1001.61
2022-11-25T03:44:02.528Z,1001.59
2022-11-25T03:45:02.030Z,1001.62
2022-11-25T03:46:01.965Z,1001.61
2022-11-25T03:47:01.469Z,1001.68
2022-11-25T03:48:01.759Z,1001.67
2022-11-25T03:49:02.033Z,1001.66
2022-11-25T03:50:01.414Z,1001.66
2022-11-25T03:51:01.641Z,1001.69
2022-11-25T03:52:02.006Z,1001.67
2022-11-25T03:53:02.109Z,1001.75
2022-11-25T03:54:02.173Z,1001.84
2022-11-25T03:55:01.858Z,1001.79
2022-11-25T03:56:01.968Z,1001.83
2022-11-25T03:57:02.125Z,1001.85
2022-11-25T03:58:02.532Z,1001.83
2022-11-25T03:59:02.077Z,1001.80
2022-11-25T04:00:02.449Z,1001.82
2022-11-25T04:01:02.087Z,1001.85
2022-11-25T04:02:02.938Z,1001.85
2022-11-25T04:03:02.344Z,1001.87
2022-11-25T04:04:02.426Z,1001.90
2022-11-25T04:05:02.693Z,1001.91
2022-11-25T04:06:02.610Z,1001.87
2022-11-25T04:07:03.199Z,1001.82
2022-11-25T04:08:03.032Z,1001.81
2022-11-25T04:09:03.464Z,1001.82
2022-11-25T04:10:03.171Z,1001.80
2022-11-25T04:11:03.392Z,1001.74
2022-11-25T04:12:02.355Z,1001.71
2022-11-25T04:13:02.918Z,1001.76
2022-11-25T04:14:02.405Z,1001.76
2022-11-25T04:15:02.677Z,1001.76
2022-11-25T04:16:02.718Z,1001.70
2022-11-25T04:17:02.854Z,1001.75
2022-11-25T04:18:02.654Z,1001.79
2022-11-25T04:19:02.775Z,1001.82
2022-11-25T04:20:02.531Z,1001.83
2022-11-25T04:21:02.743Z,1001.86
2022-11-25T04:22:03.238Z,1001.91
2022-11-25T04:23:03.000Z,1001.96
2022-11-25T04:24:03.381Z,1002.04
2022-11-25T04:25:03.272Z,1002.09
2022-11-25T04:26:03.306Z,1002.04
2022-11-25T04:27:02.683Z,1002.02
2022-11-25T04:28:02.780Z,1002.01
2022-11-25T04:29:02.877Z,1002.01
2022-11-25T04:30:02.445Z,1001.98
2022-11-25T04:31:02.836Z,1002.01
2022-11-25T04:32:03.425Z,1002.02
2022-11-25T04:33:03.598Z,1001.98
2022-11-25T04:34:03.471Z,1002.02
2022-11-25T04:35:03.528Z,1002.06
2022-11-25T04:36:03.448Z,1002.07
2022-11-25T04:37:03.199Z,1002.08
2022-11-25T04:38:03.284Z,1002.03
2022-11-25T04:39:02.765Z,1001.96
2022-11-25T04:40:02.947Z,1002.06
2022-11-25T04:41:03.254Z,1002.05
2022-11-25T04:42:02.789Z,1002.09
2022-11-25T04:43:06.163Z,1002.07
2022-11-25T04:44:02.525Z,1002.11
2022-11-25T04:46:17.745Z,1002.11
2022-11-25T04:47:03.020Z,1002.14
2022-11-25T04:48:02.357Z,1002.16
2022-11-25T04:49:02.337Z,1002.16
2022-11-25T04:50:02.974Z,1002.21
2022-11-25T04:51:02.574Z,1002.11
2022-11-25T04:52:02.835Z,1002.19
2022-11-25T04:53:02.851Z,1002.16
2022-11-25T04:54:03.087Z,1002.20
2022-11-25T04:55:02.911Z,1002.21
2022-11-25T04:56:02.845Z,1002.15
2022-11-25T04:57:02.136Z,1002.15
2022-11-25T04:58:02.405Z,1002.24
2022-11-25T04:59:02.215Z,1002.21
2022-11-25T05:00:02.501Z,1002.17
2022-11-25T05:01:02.554Z,1002.24
2022-11-25T05:02:03.571Z,1002.21
2022-11-25T05:03:03.567Z,1002.20
2022-11-25T05:04:03.294Z,1002.22
2022-11-25T05:05:03.443Z,1002.26
2022-11-25T05:06:03.665Z,1002.20
2022-11-25T05:07:02.756Z,1002.22
2022-11-25T05:08:02.879Z,1002.30
2022-11-25T05:09:02.500Z,1002.28
2022-11-25T05:10:02.460Z,1002.29
2022-11-25T05:11:02.642Z,1002.27
2022-11-25T05:12:02.793Z,1002.25
2022-11-25T05:13:02.569Z,1002.31
2022-11-25T05:14:03.050Z,1002.36
2022-11-25T05:15:02.942Z,1002.34
2022-11-25T05:16:02.768Z,1002.33
2022-11-25T05:17:02.505Z,1002.39
2022-11-25T05:18:02.873Z,1002.33
2022-11-25T05:19:02.579Z,1002.27
2022-11-25T05:20:02.513Z,1002.31
2022-11-25T05:21:02.769Z,1002.37
2022-11-25T05:22:03.518Z,1002.37
2022-11-25T05:23:03.489Z,1002.35
2022-11-25T05:24:03.188Z,1002.38
2022-11-25T05:25:03.175Z,1002.38
2022-11-25T05:26:03.504Z,1002.46
2022-11-25T05:27:02.988Z,1002.38
2022-11-25T05:28:02.751Z,1002.42
2022-11-25T05:29:03.085Z,1002.37
2022-11-25T05:30:02.767Z,1002.34
2022-11-25T05:31:02.819Z,1002.35
2022-11-25T05:32:03.168Z,1002.45
2022-11-25T05:33:02.929Z,1002.39
2022-11-25T05:34:03.034Z,1002.40
2022-11-25T05:35:03.465Z,1002.47
2022-11-25T05:36:03.010Z,1002.48
2022-11-25T05:37:03.468Z,1002.44
2022-11-25T05:38:03.416Z,1002.44
2022-11-25T05:39:03.093Z,1002.46
2022-11-25T05:40:03.407Z,1002.47
2022-11-25T05:41:03.418Z,1002.47
2022-11-25T05:42:02.852Z,1002.51
2022-11-25T05:43:02.591Z,1002.50
2022-11-25T05:44:02.420Z,1002.51
2022-11-25T05:45:02.861Z,1002.53
2022-11-25T05:46:03.022Z,1002.52
2022-11-25T05:47:03.338Z,1002.58
2022-11-25T05:48:03.099Z,1002.61
2022-11-25T05:49:02.706Z,1002.55
2022-11-25T05:50:02.803Z,1002.55
2022-11-25T05:51:03.320Z,1002.54
2022-11-25T05:52:03.394Z,1002.55
2022-11-25T05:53:03.375Z,1002.53
2022-11-25T05:54:03.491Z,1002.50
2022-11-25T05:55:03.090Z,1002.52
2022-11-25T05:56:03.748Z,1002.57
2022-11-25T05:57:03.137Z,1002.60
2022-11-25T05:58:02.822Z,1002.61
2022-11-25T05:59:02.466Z,1002.55
2022-11-25T06:00:02.941Z,1002.51
2022-11-25T06:01:02.571Z,1002.60
2022-11-25T06:02:02.796Z,1002.60
2022-11-25T06:03:02.968Z,1002.58
2022-11-25T06:04:02.963Z,1002.58
2022-11-25T06:05:02.685Z,1002.64
2022-11-25T06:06:02.952Z,1002.63
2022-11-25T06:07:03.448Z,1002.64
2022-11-25T06:08:02.888Z,1002.68
2022-11-25T06:09:03.038Z,1002.64
2022-11-25T06:10:03.640Z,1002.66
2022-11-25T06:11:02.967Z,1002.74
2022-11-25T06:12:03.059Z,1002.71
2022-11-25T06:13:03.092Z,1002.75
2022-11-25T06:14:03.149Z,1002.71
2022-11-25T06:15:03.665Z,1002.80
2022-11-25T06:16:07.698Z,1002.79
2022-11-25T06:17:02.991Z,1002.83
2022-11-25T06:18:02.737Z,1002.81
2022-11-25T06:19:02.570Z,1002.81
2022-11-25T06:20:03.074Z,1002.85
2022-11-25T06:21:02.931Z,1002.84
2022-11-25T06:22:02.917Z,1002.93
2022-11-25T06:23:02.897Z,1002.95
2022-11-25T06:24:02.859Z,1002.94
2022-11-25T06:25:04.003Z,1002.97
2022-11-25T06:26:02.915Z,1002.94
2022-11-25T06:27:03.091Z,1002.91
2022-11-25T06:28:18.859Z,1002.88
2022-11-25T06:29:03.177Z,1002.97
2022-11-25T06:30:03.559Z,1002.97
2022-11-25T06:31:03.486Z,1002.97
2022-11-25T06:32:03.634Z,1002.95
2022-11-25T06:33:03.226Z,1002.97
2022-11-25T06:34:03.239Z,1002.98
2022-11-25T06:35:03.166Z,1003.00
2022-11-25T06:36:03.328Z,1002.99
2022-11-25T06:37:03.018Z,1003.03
2022-11-25T06:38:03.111Z,1002.97
2022-11-25T06:39:02.578Z,1003.00
2022-11-25T06:40:02.753Z,1003.06
2022-11-25T06:41:02.527Z,1003.05
2022-11-25T06:42:03.299Z,1003.06
2022-11-25T06:43:03.426Z,1003.09
2022-11-25T06:44:03.663Z,1003.06
2022-11-25T06:45:03.315Z,1003.05
2022-11-25T06:46:03.249Z,1003.09
2022-11-25T06:47:02.515Z,1003.16
2022-11-25T06:48:03.013Z,1003.17
2022-11-25T06:49:02.612Z,1003.08
2022-11-25T06:50:02.429Z,1003.14
2022-11-25T06:51:02.592Z,1003.15
2022-11-25T06:52:02.665Z,1003.18
2022-11-25T06:53:02.497Z,1003.20
2022-11-25T06:54:03.059Z,1003.21
2022-11-25T06:55:02.634Z,1003.16
2022-11-25T06:56:02.427Z,1003.19
2022-11-25T06:57:03.142Z,1003.17
2022-11-25T06:58:28.107Z,1003.21
2022-11-25T06:59:03.442Z,1003.24
2022-11-25T07:00:03.020Z,1003.26
2022-11-25T07:01:02.963Z,1003.23
2022-11-25T07:02:03.409Z,1003.19
2022-11-25T07:03:03.086Z,1003.20
2022-11-25T07:04:02.722Z,1003.19
2022-11-25T07:05:02.691Z,1003.23
2022-11-25T07:06:02.639Z,1003.26
2022-11-25T07:07:02.154Z,1003.30
2022-11-25T07:08:01.983Z,1003.35
2022-11-25T07:09:02.458Z,1003.30
2022-11-25T07:10:01.940Z,1003.33
2022-11-25T07:11:02.448Z,1003.27
2022-11-25T07:12:02.899Z,1003.32
2022-11-25T07:13:02.628Z,1003.36
2022-11-25T07:14:02.621Z,1003.32
2022-11-25T07:15:02.014Z,1003.34
2022-11-25T07:16:02.485Z,1003.43
2022-11-25T07:17:03.472Z,1003.33
2022-11-25T07:18:02.509Z,1003.39
2022-11-25T07:19:02.157Z,1003.35
2022-11-25T07:20:02.666Z,1003.36
2022-11-25T07:21:02.207Z,1003.38
2022-11-25T07:22:02.872Z,1003.37
2022-11-25T07:23:02.921Z,1003.40
2022-11-25T07:24:02.901Z,1003.34
2022-11-25T07:25:02.720Z,1003.37
2022-11-25T07:26:02.840Z,1003.37
2022-11-25T07:27:02.198Z,1003.40
2022-11-25T07:28:02.330Z,1003.43
2022-11-25T07:29:02.252Z,1003.45
2022-11-25T07:32:08.721Z,1003.49
2022-11-25T07:33:02.822Z,1003.49
2022-11-25T07:34:02.606Z,1003.48
2022-11-25T07:35:02.832Z,1003.52
2022-11-25T07:36:02.836Z,1003.50
2022-11-25T07:37:02.296Z,1003.54
2022-11-25T07:38:01.987Z,1003.47
2022-11-25T07:39:02.004Z,1003.45
2022-11-25T07:40:01.948Z,1003.52
2022-11-25T07:41:02.375Z,1003.51
2022-11-25T07:42:02.765Z,1003.56
2022-11-25T07:43:02.523Z,1003.63
2022-11-25T07:44:02.840Z,1003.60
2022-11-25T07:45:02.817Z,1003.58
2022-11-25T07:46:02.457Z,1003.59
2022-11-25T07:47:02.929Z,1003.58
2022-11-25T07:48:02.364Z,1003.62
2022-11-25T07:49:02.357Z,1003.60
2022-11-25T07:50:02.728Z,1003.65
2022-11-25T07:51:02.581Z,1003.69
2022-11-25T07:52:02.261Z,1003.65
2022-11-25T07:53:01.864Z,1003.75
2022-11-25T07:54:01.932Z,1003.69
2022-11-25T07:55:01.809Z,1003.67
2022-11-25T07:56:02.342Z,1003.70
2022-11-25T07:57:02.222Z,1003.77
2022-11-25T07:58:02.447Z,1003.77
2022-11-25T07:59:02.866Z,1003.78
2022-11-25T08:00:02.386Z,1003.82
2022-11-25T08:01:02.802Z,1003.81
2022-11-25T08:02:03.310Z,1003.81
2022-11-25T08:03:02.789Z,1003.85
2022-11-25T08:04:02.800Z,1003.87
2022-11-25T08:05:02.774Z,1003.91
2022-11-25T08:06:02.773Z,1003.89
2022-11-25T08:07:02.872Z,1003.92
2022-11-25T08:08:02.708Z,1003.92
2022-11-25T08:09:02.848Z,1003.95
2022-11-25T08:10:02.728Z,1003.94
2022-11-25T08:11:02.237Z,1003.96
2022-11-25T08:12:02.701Z,1004.04
2022-11-25T08:13:02.841Z,1004.08
2022-11-25T08:14:02.608Z,1004.04
2022-11-25T08:15:02.338Z,1004.06
2022-11-25T08:16:02.871Z,1004.04
2022-11-25T08:17:01.694Z,1004.09
2022-11-25T08:18:01.852Z,1004.09
2022-11-25T08:19:02.181Z,1004.04
2022-11-25T08:20:01.707Z,1004.11
2022-11-25T08:21:02.244Z,1004.07
2022-11-25T08:22:02.611Z,1004.07
2022-11-25T08:23:02.784Z,1004.05
2022-11-25T08:24:02.421Z,1004.09
2022-11-25T08:25:02.267Z,1004.09
2022-11-25T08:26:02.166Z,1004.15
2022-11-25T08:27:02.517Z,1004.08
2022-11-25T08:28:02.934Z,1004.12
2022-11-25T08:29:02.697Z,1004.14
2022-11-25T08:30:02.814Z,1004.09
2022-11-25T08:31:02.681Z,1004.10
2022-11-25T08:32:05.144Z,1004.12
2022-11-25T08:33:01.863Z,1004.12
2022-11-25T08:34:01.686Z,1004.14
2022-11-25T08:35:01.963Z,1004.21
2022-11-25T08:36:02.281Z,1004.19
2022-11-25T08:37:02.425Z,1004.15
2022-11-25T08:38:02.115Z,1004.20
2022-11-25T08:39:02.280Z,1004.18
2022-11-25T08:40:02.457Z,1004.26
2022-11-25T08:41:02.348Z,1004.20
2022-11-25T08:42:02.343Z,1004.27
2022-11-25T08:43:02.176Z,1004.24
2022-11-25T08:44:02.242Z,1004.27
2022-11-25T08:45:02.855Z,1004.32
2022-11-25T08:46:02.801Z,1004.26
2022-11-25T08:47:02.735Z,1004.28
2022-11-25T08:48:03.601Z,1004.31
2022-11-25T08:49:02.921Z,1004.37
2022-11-25T08:50:03.082Z,1004.40
2022-11-25T08:51:02.671Z,1004.41
2022-11-25T08:52:02.212Z,1004.41
2022-11-25T08:53:02.344Z,1004.44
2022-11-25T08:54:02.304Z,1004.48
2022-11-25T08:55:02.753Z,1004.46
2022-11-25T08:56:02.363Z,1004.49
2022-11-25T08:57:02.477Z,1004.47
2022-11-25T08:58:03.035Z,1004.50
2022-11-25T08:59:02.751Z,1004.50
2022-11-25T09:00:02.830Z,1004.53
2022-11-25T09:01:02.589Z,1004.56
2022-11-25T09:02:02.670Z,1004.53
2022-11-25T09:03:04.461Z,1004.55
2022-11-25T09:04:02.581Z,1004.60
2022-11-25T09:05:03.159Z,1004.56
2022-11-25T09:06:02.816Z,1004.63
2022-11-25T09:07:02.095Z,1004.60
2022-11-25T09:08:02.659Z,1004.61
2022-11-25T09:09:02.388Z,1004.55
2022-11-25T09:10:02.625Z,1004.54
2022-11-25T09:11:02.271Z,1004.58
2022-11-25T09:12:02.180Z,1004.56
2022-11-25T09:13:02.248Z,1004.58
2022-11-25T09:14:02.513Z,1004.58
2022-11-25T09:15:02.311Z,1004.61
2022-11-25T09:16:02.247Z,1004.69
2022-11-25T09:17:02.914Z,1004.71
2022-11-25T09:18:02.449Z,1004.70
2022-11-25T09:19:02.347Z,1004.68
2022-11-25T09:20:02.948Z,1004.67
2022-11-25T09:21:02.926Z,1004.69
2022-11-25T09:22:02.708Z,1004.71
2022-11-25T09:23:02.621Z,1004.74
2022-11-25T09:24:02.883Z,1004.67
2022-11-25T09:25:02.990Z,1004.71
2022-11-25T09:26:02.399Z,1004.81
2022-11-25T09:27:02.269Z,1004.76
2022-11-25T09:28:01.823Z,1004.83
2022-11-25T09:29:01.951Z,1004.82
2022-11-25T09:30:01.973Z,1004.84
2022-11-25T09:31:02.271Z,1004.85
2022-11-25T09:32:02.449Z,1004.79
2022-11-25T09:33:02.492Z,1004.81
2022-11-25T09:34:02.760Z,1004.82
2022-11-25T09:35:02.526Z,1004.82
2022-11-25T09:36:02.743Z,1004.76
2022-11-25T09:37:02.665Z,1004.81
2022-11-25T09:38:02.722Z,1004.89
2022-11-25T09:39:02.630Z,1004.88
2022-11-25T09:40:02.941Z,1004.90
2022-11-25T09:41:02.930Z,1004.93
2022-11-25T09:42:02.166Z,1005.03
2022-11-25T09:43:02.289Z,1004.98
2022-11-25T09:44:02.549Z,1004.98
2022-11-25T09:45:01.946Z,1004.96
2022-11-25T09:46:02.107Z,1004.98
2022-11-25T09:47:02.695Z,1004.91
2022-11-25T09:48:02.076Z,1005.01
2022-11-25T09:49:02.191Z,1005.04
2022-11-25T09:50:02.273Z,1004.98
2022-11-25T09:51:02.392Z,1004.99
2022-11-25T09:52:02.573Z,1005.05
2022-11-25T09:53:02.620Z,1004.97
2022-11-25T09:54:02.931Z,1005.06
2022-11-25T09:55:02.908Z,1005.06
2022-11-25T09:56:02.457Z,1005.05
2022-11-25T09:57:02.061Z,1005.11
2022-11-25T09:58:02.106Z,1005.14
2022-11-25T09:59:01.761Z,1005.13
2022-11-25T10:00:02.426Z,1005.17
2022-11-25T10:01:02.112Z,1005.14
2022-11-25T10:02:03.480Z,1005.19
2022-11-25T10:03:03.606Z,1005.16
2022-11-25T10:04:03.526Z,1005.21
2022-11-25T10:05:03.353Z,1005.19
2022-11-25T10:06:03.438Z,1005.17
2022-11-25T10:07:02.735Z,1005.12
2022-11-25T10:08:02.973Z,1005.15
2022-11-25T10:09:02.902Z,1005.23
2022-11-25T10:10:02.562Z,1005.27
2022-11-25T10:11:02.599Z,1005.27
2022-11-25T10:12:03.401Z,1005.30
2022-11-25T10:13:03.425Z,1005.31
2022-11-25T10:14:03.397Z,1005.29
2022-11-25T10:15:03.361Z,1005.24
2022-11-25T10:16:03.650Z,1005.22
2022-11-25T10:17:02.644Z,1005.31
2022-11-25T10:18:02.729Z,1005.25
2022-11-25T10:19:02.664Z,1005.23
2022-11-25T10:20:02.982Z,1005.22
2022-11-25T10:21:02.611Z,1005.17
2022-11-25T10:22:02.836Z,1005.16
2022-11-25T10:23:03.006Z,1005.16
2022-11-25T10:24:03.059Z,1005.20
2022-11-25T10:25:02.700Z,1005.24
2022-11-25T10:26:03.152Z,1005.23
2022-11-25T10:27:02.507Z,1005.23
2022-11-25T10:28:02.661Z,1005.21
2022-11-25T10:29:02.282Z,1005.16
2022-11-25T10:30:02.709Z,1005.22
2022-11-25T10:31:02.720Z,1005.20
2022-11-25T10:32:02.886Z,1005.24
2022-11-25T10:33:02.854Z,1005.19
2022-11-25T10:34:02.874Z,1005.20
2022-11-25T10:35:02.808Z,1005.24
2022-11-25T10:36:02.929Z,1005.21
2022-11-25T10:37:02.762Z,1005.24
2022-11-25T10:38:02.638Z,1005.21
2022-11-25T10:39:02.565Z,1005.23
2022-11-25T10:40:02.229Z,1005.32
2022-11-25T10:41:02.626Z,1005.30
2022-11-25T10:42:02.716Z,1005.28
2022-11-25T10:43:02.655Z,1005.30
2022-11-25T10:44:02.655Z,1005.28
2022-11-25T10:45:02.597Z,1005.28
2022-11-25T10:46:02.400Z,1005.29
2022-11-25T10:47:18.323Z,1005.24
2022-11-25T10:48:02.903Z,1005.32
2022-11-25T10:49:02.847Z,1005.33
2022-11-25T10:50:02.893Z,1005.34
2022-11-25T10:51:02.806Z,1005.38
2022-11-25T10:52:02.664Z,1005.41
2022-11-25T10:53:02.641Z,1005.45
2022-11-25T10:54:02.262Z,1005.43
2022-11-25T10:55:02.480Z,1005.44
2022-11-25T10:56:02.517Z,1005.37
2022-11-25T10:57:02.713Z,1005.44
2022-11-25T10:58:02.716Z,1005.36
2022-11-25T10:59:02.653Z,1005.45
2022-11-25T11:00:02.661Z,1005.45
2022-11-25T11:01:02.810Z,1005.43
2022-11-25T11:02:02.418Z,1005.45
2022-11-25T11:03:02.082Z,1005.43
2022-11-25T11:04:02.122Z,1005.46
2022-11-25T11:05:02.102Z,1005.46
2022-11-25T11:06:02.058Z,1005.45
2022-11-25T11:07:02.768Z,1005.50
2022-11-25T11:08:02.631Z,1005.51
2022-11-25T11:09:02.523Z,1005.52
2022-11-25T11:10:02.382Z,1005.53
2022-11-25T11:11:02.931Z,1005.52
2022-11-25T11:12:02.471Z,1005.49
2022-11-25T11:13:02.557Z,1005.53
2022-11-25T11:14:02.333Z,1005.60
2022-11-25T11:15:02.375Z,1005.63
2022-11-25T11:16:02.449Z,1005.68
2022-11-25T11:17:02.587Z,1005.62
2022-11-25T11:18:02.418Z,1005.61
2022-11-25T11:19:02.289Z,1005.59
2022-11-25T11:20:02.630Z,1005.63
2022-11-25T11:21:02.082Z,1005.66
2022-11-25T11:22:02.966Z,1005.66
2022-11-25T11:23:08.439Z,1005.67
2022-11-25T11:24:02.605Z,1005.68
2022-11-25T11:25:02.831Z,1005.71
2022-11-25T11:26:03.041Z,1005.71
2022-11-25T11:27:02.358Z,1005.71
2022-11-25T11:28:01.899Z,1005.67
2022-11-25T11:29:01.883Z,1005.65
2022-11-25T11:30:01.927Z,1005.67
2022-11-25T11:31:01.975Z,1005.70
2022-11-25T11:32:02.402Z,1005.72
2022-11-25T11:33:01.963Z,1005.70
2022-11-25T11:34:02.061Z,1005.77
2022-11-25T11:35:02.073Z,1005.71
2022-11-25T11:36:02.019Z,1005.70
2022-11-25T11:37:02.728Z,1005.77
2022-11-25T11:38:02.627Z,1005.77
2022-11-25T11:39:02.148Z,1005.79
2022-11-25T11:40:02.248Z,1005.80
2022-11-25T11:41:02.288Z,1005.82
2022-11-25T11:42:01.467Z,1005.85
2022-11-25T11:43:01.660Z,1005.88
2022-11-25T11:44:02.075Z,1005.85
2022-11-25T11:45:01.582Z,1005.88
2022-11-25T11:46:01.723Z,1005.96
2022-11-25T11:47:01.845Z,1005.88
2022-11-25T11:48:02.325Z,1005.88
2022-11-25T11:49:02.121Z,1005.88
2022-11-25T11:50:01.950Z,1005.89
2022-11-25T11:51:01.984Z,1005.92
2022-11-25T11:52:01.933Z,1005.92
2022-11-25T11:53:02.345Z,1005.91
2022-11-25T11:54:02.017Z,1005.85
2022-11-25T11:55:02.423Z,1005.85
2022-11-25T11:56:33.085Z,1005.88
2022-11-25T11:57:02.106Z,1005.88
2022-11-25T11:58:02.187Z,1005.86
2022-11-25T11:59:02.477Z,1005.86
2022-11-25T12:00:02.482Z,1005.85
2022-11-25T12:01:02.215Z,1005.84
2022-11-25T12:02:02.294Z,1005.83
2022-11-25T12:03:02.460Z,1005.94
2022-11-25T12:04:02.353Z,1005.99
2022-11-25T12:05:02.717Z,1005.99
2022-11-25T12:06:02.512Z,1005.91
2022-11-25T12:07:02.314Z,1005.98
2022-11-25T12:08:02.723Z,1005.94